createdAt,value
2022-10-24T00:02:03.779Z,17.20
2022-10-24T00:07:08.372Z,17.10
2022-10-24T00:12:11.689Z,17.10
2022-10-24T00:17:16.432Z,17.40
2022-10-24T00:22:19.612Z,17.30
2022-10-24T00:27:23.027Z,17.10
2022-10-24T00:32:27.788Z,16.90
2022-10-24T00:37:31.436Z,16.90
2022-10-24T00:42:37.715Z,16.70
2022-10-24T00:47:42.744Z,16.60
2022-10-24T00:52:49.013Z,16.50
2022-10-24T00:57:56.897Z,16.30
2022-10-24T01:03:05.499Z,16.00
2022-10-24T01:08:20.582Z,16.00
2022-10-24T01:13:36.403Z,16.00
2022-10-24T01:18:47.745Z,15.90
2022-10-24T01:24:13.833Z,15.90
2022-10-24T01:29:23.248Z,15.80
2022-10-24T01:34:33.879Z,15.80
2022-10-24T01:39:43.061Z,15.80
2022-10-24T01:44:50.514Z,15.80
2022-10-24T01:49:59.817Z,15.60
2022-10-24T01:55:04.019Z,15.50
2022-10-24T02:00:09.460Z,15.40
2022-10-24T02:05:21.622Z,15.40
2022-10-24T02:10:29.385Z,15.60
2022-10-24T02:15:37.460Z,15.70
2022-10-24T02:20:48.278Z,15.80
2022-10-24T02:25:56.109Z,15.70
2022-10-24T02:31:03.849Z,15.80
2022-10-24T02:36:11.211Z,15.70
2022-10-24T02:41:20.610Z,15.70
2022-10-24T02:46:24.869Z,15.60
2022-10-24T02:51:33.326Z,15.40
2022-10-24T02:56:38.822Z,15.20
2022-10-24T03:01:42.101Z,15.20
2022-10-24T03:06:46.932Z,15.10
2022-10-24T03:11:50.252Z,15.10
2022-10-24T03:16:53.561Z,15.50
2022-10-24T03:21:58.161Z,15.40
2022-10-24T03:27:01.417Z,15.20
2022-10-24T03:32:05.535Z,15.10
2022-10-24T03:37:10.241Z,15.10
2022-10-24T03:42:13.671Z,15.10
2022-10-24T03:47:16.892Z,15.10
2022-10-24T03:52:21.475Z,15.10
2022-10-24T03:57:24.954Z,15.10
2022-10-24T04:02:28.503Z,15.10
2022-10-24T04:07:38.723Z,15.10
2022-10-24T04:12:42.071Z,15.00
2022-10-24T04:17:45.609Z,15.00
2022-10-24T04:22:51.185Z,15.00
2022-10-24T04:27:54.559Z,15.00
2022-10-24T04:32:58.009Z,15.00
2022-10-24T04:38:02.836Z,14.90
2022-10-24T04:43:06.022Z,14.80
2022-10-24T04:48:12.787Z,14.90
2022-10-24T04:53:20.531Z,15.20
2022-10-24T04:58:23.990Z,15.60
2022-10-24T05:03:27.431Z,15.90
2022-10-24T05:08:32.149Z,15.80
2022-10-24T05:13:36.785Z,15.70
2022-10-24T05:18:40.408Z,15.60
2022-10-24T05:23:45.257Z,15.50
2022-10-24T05:28:51.689Z,15.30
2022-10-24T05:33:56.182Z,15.30
2022-10-24T05:39:02.860Z,15.20
2022-10-24T05:44:06.318Z,15.20
2022-10-24T05:49:09.707Z,15.10
2022-10-24T05:54:14.413Z,15.00
2022-10-24T05:59:17.913Z,14.90
2022-10-24T06:04:21.159Z,14.80
2022-10-24T06:09:25.755Z,14.70
2022-10-24T06:14:29.347Z,14.80
2022-10-24T06:19:32.641Z,14.90
2022-10-24T06:24:38.405Z,14.80
2022-10-24T06:29:41.748Z,14.70
2022-10-24T06:34:45.080Z,14.60
2022-10-24T06:39:49.640Z,14.40
2022-10-24T06:44:52.872Z,14.30
2022-10-24T06:49:56.091Z,14.20
2022-10-24T06:55:00.685Z,14.20
2022-10-24T07:00:06.237Z,14.30
2022-10-24T07:05:12.822Z,14.40
2022-10-24T07:10:17.436Z,14.50
2022-10-24T07:15:20.719Z,14.60
2022-10-24T07:20:23.982Z,14.70
2022-10-24T07:25:31.973Z,14.60
2022-10-24T07:30:35.697Z,14.50
2022-10-24T07:35:42.913Z,14.40
2022-10-24T07:40:48.642Z,14.40
2022-10-24T07:45:52.368Z,14.40
2022-10-24T07:50:55.767Z,14.40
2022-10-24T07:56:01.242Z,14.50
2022-10-24T08:01:05.678Z,14.70
2022-10-24T08:06:11.290Z,14.80
2022-10-24T08:11:17.979Z,14.80
2022-10-24T08:16:22.936Z,14.70
2022-10-24T08:21:27.461Z,14.80
2022-10-24T08:26:32.107Z,15.00
2022-10-24T08:31:36.237Z,15.30
2022-10-24T08:36:39.642Z,15.30
2022-10-24T08:41:47.909Z,15.10
2022-10-24T08:46:56.510Z,15.10
2022-10-24T08:52:04.719Z,15.10
2022-10-24T08:57:23.917Z,15.20
2022-10-24T09:02:29.043Z,15.30
2022-10-24T09:07:32.459Z,15.20
2022-10-24T09:12:40.267Z,15.20
2022-10-24T09:17:45.220Z,15.20
2022-10-24T09:22:49.356Z,15.20
2022-10-24T09:27:54.191Z,15.20
2022-10-24T09:32:59.498Z,15.20
2022-10-24T09:38:28.131Z,15.20
2022-10-24T09:43:39.183Z,15.20
2022-10-24T09:48:53.745Z,15.20
2022-10-24T09:54:27.089Z,15.20
2022-10-24T09:59:38.448Z,15.20
2022-10-24T10:04:43.126Z,15.10
2022-10-24T10:09:55.662Z,15.10
2022-10-24T10:15:03.546Z,15.20
2022-10-24T10:20:07.593Z,15.00
2022-10-24T10:25:30.604Z,15.00
2022-10-24T10:30:35.568Z,15.00
2022-10-24T10:35:50.311Z,15.00
2022-10-24T10:41:02.421Z,15.10
2022-10-24T10:46:19.488Z,15.30
2022-10-24T10:51:34.954Z,15.80
2022-10-24T11:02:37.136Z,16.20
2022-10-24T11:07:49.872Z,16.10
2022-10-24T11:12:56.487Z,16.00
2022-10-24T11:18:09.271Z,15.70
2022-10-24T11:23:18.024Z,15.50
2022-10-24T11:28:25.175Z,15.20
2022-10-24T11:33:33.596Z,15.20
2022-10-24T11:38:42.362Z,15.30
2022-10-24T11:43:48.736Z,15.40
2022-10-24T11:48:56.398Z,15.60
2022-10-24T11:54:01.754Z,15.70
2022-10-24T11:59:08.277Z,15.80
2022-10-24T12:04:38.552Z,15.90
2022-10-24T12:10:05.387Z,16.10
2022-10-24T12:15:27.037Z,16.20
2022-10-24T12:20:32.523Z,16.50
2022-10-24T12:25:37.372Z,16.60
2022-10-24T12:30:41.399Z,16.80
2022-10-24T12:35:57.365Z,16.80
2022-10-24T12:41:06.790Z,16.80
2022-10-24T12:46:49.487Z,16.80
2022-10-24T12:51:54.241Z,16.80
2022-10-24T12:57:28.407Z,16.90
2022-10-24T13:03:07.683Z,16.90
2022-10-24T13:08:24.930Z,17.00
2022-10-24T13:14:03.375Z,17.20
2022-10-24T13:19:17.073Z,17.20
2022-10-24T13:24:37.724Z,17.20
2022-10-24T13:30:23.990Z,17.30
2022-10-24T13:35:27.571Z,17.40
2022-10-24T13:40:34.486Z,17.30
2022-10-24T13:45:47.460Z,17.20
2022-10-24T13:51:03.814Z,17.00
2022-10-24T13:56:13.616Z,16.90
2022-10-24T14:01:20.886Z,16.80
2022-10-24T14:06:26.860Z,16.60
2022-10-24T14:11:32.680Z,16.50
2022-10-24T14:16:36.606Z,16.30
2022-10-24T14:21:42.606Z,16.20
2022-10-24T14:26:49.291Z,16.00
2022-10-24T14:31:58.085Z,15.90
2022-10-24T14:37:04.486Z,15.90
2022-10-24T14:42:15.900Z,16.00
2022-10-24T14:47:23.835Z,16.60
2022-10-24T14:52:29.833Z,17.40
2022-10-24T14:57:36.681Z,17.60
2022-10-24T15:02:43.266Z,17.40
2022-10-24T15:08:09.263Z,17.00
2022-10-24T15:13:17.104Z,16.50
2022-10-24T15:18:22.914Z,16.00
2022-10-24T15:23:28.475Z,15.80
2022-10-24T15:28:39.483Z,15.70
2022-10-24T15:33:43.089Z,15.70
2022-10-24T15:38:46.483Z,15.50
2022-10-24T15:43:51.165Z,15.30
2022-10-24T15:48:54.696Z,15.10
2022-10-24T15:53:58.107Z,14.80
2022-10-24T15:59:02.807Z,14.70
2022-10-24T16:04:08.597Z,14.40
2022-10-24T16:09:16.288Z,14.30
2022-10-24T16:14:22.423Z,14.10
2022-10-24T16:19:27.038Z,13.90
2022-10-24T16:24:30.870Z,13.70
2022-10-24T16:29:35.530Z,13.50
2022-10-24T16:34:38.936Z,13.20
2022-10-24T16:39:43.003Z,13.30
2022-10-24T16:44:48.784Z,13.20
2022-10-24T16:49:59.162Z,13.00
2022-10-24T16:55:05.078Z,12.90
2022-10-24T17:00:14.364Z,12.70
2022-10-24T17:05:27.478Z,12.60
2022-10-24T17:10:31.996Z,12.40
2022-10-24T17:15:37.946Z,12.40
2022-10-24T17:20:44.237Z,12.30
2022-10-24T17:25:47.826Z,12.20
2022-10-24T17:35:58.825Z,12.10
2022-10-24T17:41:12.521Z,12.20
2022-10-24T17:46:19.765Z,12.20
2022-10-24T17:51:31.509Z,12.30
2022-10-24T17:56:36.031Z,12.40
2022-10-24T18:01:40.940Z,12.40
2022-10-24T18:06:55.762Z,12.40
2022-10-24T18:12:01.108Z,12.40
2022-10-24T18:17:06.925Z,12.20
2022-10-24T18:22:10.193Z,12.00
2022-10-24T18:27:16.808Z,11.90
2022-10-24T18:32:22.731Z,11.70
2022-10-24T18:37:27.737Z,11.60
2022-10-24T18:42:39.179Z,11.60
2022-10-24T18:47:46.859Z,11.80
2022-10-24T18:52:56.654Z,12.30
2022-10-24T18:58:01.980Z,12.50
2022-10-24T19:03:17.050Z,12.60
2022-10-24T19:08:25.703Z,12.70
2022-10-24T19:13:30.059Z,12.80
2022-10-24T19:18:37.245Z,12.90
2022-10-24T19:23:40.429Z,12.90
2022-10-24T19:28:43.781Z,12.90
2022-10-24T19:33:48.514Z,12.90
2022-10-24T19:38:55.904Z,13.00
2022-10-24T19:43:59.150Z,13.00
2022-10-24T19:49:09.636Z,12.90
2022-10-24T19:54:14.945Z,12.90
2022-10-24T19:59:20.302Z,12.90
2022-10-24T20:04:25.077Z,13.00
2022-10-24T20:09:29.486Z,13.00
2022-10-24T20:14:32.806Z,13.00
2022-10-24T20:19:37.464Z,12.90
2022-10-24T20:24:42.867Z,12.80
2022-10-24T20:29:46.303Z,12.80
2022-10-24T20:34:53.888Z,12.90
2022-10-24T20:40:01.047Z,12.70
2022-10-24T20:45:10.941Z,12.20
2022-10-24T20:50:15.776Z,12.00
2022-10-24T20:55:32.044Z,11.80
2022-10-24T21:00:43.109Z,11.70
2022-10-24T21:05:48.774Z,11.60
2022-10-24T21:10:52.098Z,11.50
2022-10-24T21:15:58.470Z,11.40
2022-10-24T21:21:09.038Z,11.30
2022-10-24T21:26:14.689Z,11.10
2022-10-24T21:31:19.891Z,10.90
2022-10-24T21:36:25.634Z,10.80
2022-10-24T21:41:29.965Z,10.80
2022-10-24T21:46:33.457Z,10.80
2022-10-24T21:51:41.407Z,10.80
2022-10-24T21:56:44.807Z,10.70
2022-10-24T22:01:50.117Z,10.60
2022-10-24T22:06:55.183Z,10.50
2022-10-24T22:11:58.837Z,10.40
2022-10-24T22:17:05.345Z,10.20
2022-10-24T22:22:09.964Z,10.10
2022-10-24T22:27:13.311Z,9.90
2022-10-24T22:32:18.222Z,9.90
2022-10-24T22:37:30.838Z,9.80
2022-10-24T22:42:34.496Z,9.80
2022-10-24T22:47:53.378Z,9.70
2022-10-24T22:52:58.784Z,9.70
2022-10-24T22:58:02.724Z,9.60
2022-10-24T23:03:16.595Z,9.60
2022-10-24T23:08:30.178Z,9.60
2022-10-24T23:13:34.262Z,9.60
2022-10-24T23:18:39.225Z,9.40
2022-10-24T23:23:44.561Z,9.30
2022-10-24T23:28:51.510Z,9.30
2022-10-24T23:33:55.176Z,9.30
2022-10-24T23:39:01.806Z,9.30
2022-10-24T23:44:05.820Z,9.40
2022-10-24T23:49:24.987Z,9.30
2022-10-24T23:54:33.336Z,9.20
2022-10-24T23:59:37.636Z,9.10
